KILN

Wilmington Airpark

Wilmington, Ohio, USA
KILN 191926Z 1919/2018 30003KT 2SM BR OVC004 FM192100 30003KT 4SM BR OVC006 FM200200 31005KT P6SM OVC011 FM201000 28007KT P6SM BKN016
Issued Valid From Valid To
Nov-19 @ 19:26 UTC
(3 hours ago)
Nov-19 @ 19:00 UTC
(3 hours ago)
Nov-20 @ 18:00 UTC
(in 20 hours)
Expired Click to View Nov-19 @ 19:00 to Nov-19 @ 21:00
KILN 191926Z 1919/2018 30003KT 2SM BR OVC004
Wind Visibility Clouds Conditions
300° at 3 knots 2 miles
  • Overcast at 400' AGL
  • Mist
From Nov-19 @ 21:00 to Nov-20 @ 02:00
FM192100 30003KT 4SM BR OVC006
Wind Visibility Clouds Conditions
300° at 3 knots 4 miles
  • Overcast at 600' AGL
  • Mist
From Nov-20 @ 02:00 to Nov-20 @ 10:00
FM200200 31005KT P6SM OVC011
Wind Visibility Clouds
310° at 5 knots Greater than 6 miles
  • Overcast at 1,100' AGL
From Nov-20 @ 10:00 to Nov-20 @ 18:00
FM201000 28007KT P6SM BKN016
Wind Visibility Clouds
280° at 7 knots Greater than 6 miles
  • Broken at 1,600' AGL
KILN 191926Z 1919/2018 30003KT 2SM BR OVC004 FM192100 30003KT 4SM BR OVC006 FM200200 31005KT P6SM OVC011 FM201000 28007KT P6SM BKN016
Issued Nov-19 @ 19:26 UTC
(3 hours ago)
Valid From Nov-19 @ 19:00 UTC
(3 hours ago)
Valid To Nov-20 @ 18:00 UTC
(in 20 hours)
Nov-19 @ 19:00 - Nov-19 @ 21:00
Wind Visibility
300° at 3 knots 2 miles
Clouds
  • Overcast at 400' AGL
Conditions
  • Mist
From Nov-19 @ 21:00 - Nov-20 @ 02:00
Wind Visibility
300° at 3 knots 4 miles
Clouds
  • Overcast at 600' AGL
Conditions
  • Mist
From Nov-20 @ 02:00 - Nov-20 @ 10:00
Wind Visibility
310° at 5 knots Greater than 6 miles
Clouds
  • Overcast at 1,100' AGL
From Nov-20 @ 10:00 - Nov-20 @ 18:00
Wind Visibility
280° at 7 knots Greater than 6 miles
Clouds
  • Broken at 1,600' AGL